Terminal Aerodrome Forecast
Issued by NWS

Home | Current Version | Previous Version | Text Only | Print | Product List | Glossary On
Versions: 1 2 3 4 5 6 7 8 9 10 11 12 13 14 15
000
FTUS46 KMTR 262300
TAFSNS
TAF
KSNS 262335Z 2700/2724 27012KT P6SM SKC
     FM270300 28008KT P6SM FEW015
     FM270600 29006KT P6SM BKN012
     FM271700 29010KT P6SM SCT015
     FM272100 29012KT P6SM FEW022=

USA.gov is the U.S. government's official web portal to all federal, state and local government web resources and services.